Time;durP1;ratioP1;P1;durP2;ratioP2;P2;SDS_P1;SDS_P2;PMS_P1;PMS_P2;Temp;Humidity;BMP_temperature;BMP_pressure;BME280_temperature;BME280_humidity;BME280_pressure;Samples;Min_cycle;Max_cycle;Signal;HPM_P1;HPM_P2
2023/03/29 00:01:40;;;;;;;2.30;2.10;;;;;;;4.93;87.31;101678.41;6162647;23;20022;-75
2023/03/29 00:04:08;;;;;;;2.67;2.30;;;;;;;4.95;87.47;101683.31;6189721;23;20072;-75
2023/03/29 00:06:36;;;;;;;2.38;2.20;;;;;;;4.94;87.70;101682.56;6188768;23;20466;-76
2023/03/29 00:09:04;;;;;;;2.35;2.15;;;;;;;4.96;87.75;101677.66;6189397;23;20022;-76
2023/03/29 00:11:31;;;;;;;2.78;2.58;;;;;;;4.94;87.92;101666.72;6189602;23;20443;-76
2023/03/29 00:13:58;;;;;;;2.92;2.63;;;;;;;4.95;87.48;101676.16;6189662;23;20454;-76
2023/03/29 00:16:24;;;;;;;2.65;2.33;;;;;;;4.96;87.36;101676.91;6188952;23;20020;-76
2023/03/29 00:18:51;;;;;;;3.63;2.60;;;;;;;4.97;87.90;101673.13;6189724;23;20026;-76
2023/03/29 00:21:17;;;;;;;2.80;2.60;;;;;;;4.96;87.51;101677.66;6188086;23;20454;-76
2023/03/29 00:23:44;;;;;;;2.03;1.92;;;;;;;4.97;87.14;101673.13;6163697;23;20014;-76
2023/03/29 00:26:11;;;;;;;3.08;2.38;;;;;;;4.97;87.33;101660.69;6189269;23;20486;-76
2023/03/29 00:28:37;;;;;;;2.55;2.35;;;;;;;4.98;87.52;101661.44;6189954;23;20017;-76
2023/03/29 00:31:07;;;;;;;2.20;2.00;;;;;;;4.97;87.43;101646.75;6163157;23;20045;-75
2023/03/29 00:33:34;;;;;;;5.57;2.50;;;;;;;4.98;87.47;101638.47;6189261;23;20017;-76
2023/03/29 00:36:00;;;;;;;2.85;2.30;;;;;;;4.97;87.31;101633.56;6189050;23;20017;-75
2023/03/29 00:38:27;;;;;;;2.58;2.38;;;;;;;4.97;87.37;101634.31;6162213;23;20032;-76
2023/03/29 00:40:54;;;;;;;2.55;2.22;;;;;;;4.99;87.68;101637.31;6188872;23;20465;-76
2023/03/29 00:43:20;;;;;;;2.30;2.10;;;;;;;5.00;87.69;101632.81;6189346;23;20017;-76
2023/03/29 00:45:47;;;;;;;3.38;2.40;;;;;;;5.00;87.44;101628.28;6189848;23;20399;-76
2023/03/29 00:48:21;;;;;;;4.15;2.45;;;;;;;5.01;87.34;101619.22;6162270;23;20481;-75
2023/03/29 00:51:00;;;;;;;2.67;2.10;;;;;;;5.03;87.46;101621.50;6162387;23;20022;-76
2023/03/29 00:53:37;;;;;;;2.50;2.22;;;;;;;5.03;87.21;101614.31;6162405;23;20104;-76
2023/03/29 00:56:23;;;;;;;7.30;2.58;;;;;;;5.04;86.85;101615.06;6162404;23;20024;-76
2023/03/29 00:59:10;;;;;;;4.05;2.30;;;;;;;5.05;86.77;101619.22;6163691;23;20041;-76
2023/03/29 01:01:57;;;;;;;3.00;2.47;;;;;;;5.07;86.31;101605.66;6189564;23;20024;-76
2023/03/29 01:04:36;;;;;;;3.33;2.58;;;;;;;5.08;86.42;101600.00;6161639;23;20021;-76
2023/03/29 01:07:16;;;;;;;2.80;2.03;;;;;;;5.11;86.02;101606.41;6189615;23;20073;-76
2023/03/29 01:09:51;;;;;;;2.38;2.05;;;;;;;5.13;86.35;101596.22;6163037;23;20025;-76
2023/03/29 01:12:22;;;;;;;2.20;2.10;;;;;;;5.14;86.20;101585.28;6161587;23;20096;-76
2023/03/29 01:15:07;;;;;;;3.57;2.43;;;;;;;5.17;86.16;101581.13;6163148;23;20447;-76
2023/03/29 01:17:34;;;;;;;3.80;2.45;;;;;;;5.19;85.86;101587.53;6162603;23;20022;-76
2023/03/29 01:20:13;;;;;;;3.85;2.15;;;;;;;5.20;85.53;101586.38;6161928;23;20077;-76
2023/03/29 01:22:50;;;;;;;3.85;2.58;;;;;;;5.21;85.47;101579.97;6162753;23;20105;-76
2023/03/29 01:25:47;;;;;;;4.65;2.10;;;;;;;5.24;85.33;101579.19;6162128;23;20455;-75
2023/03/29 01:28:20;;;;;;;2.53;2.33;;;;;;;5.26;85.12;101581.44;6189049;23;20052;-76
2023/03/29 01:31:06;;;;;;;5.13;2.28;;;;;;;5.29;85.01;101570.13;6189680;23;20021;-76
2023/03/29 01:33:50;;;;;;;6.07;2.53;;;;;;;5.30;84.65;101574.28;6187993;23;20022;-76
2023/03/29 01:36:23;;;;;;;3.00;2.55;;;;;;;5.33;84.56;101579.53;6188490;23;20018;-75
2023/03/29 01:38:55;;;;;;;2.33;2.13;;;;;;;5.36;84.36;101580.66;6189922;23;20017;-75
2023/03/29 01:41:34;;;;;;;3.47;2.55;;;;;;;5.40;84.12;101575.38;6161704;23;20053;-76
2023/03/29 01:44:06;;;;;;;3.67;2.13;;;;;;;5.42;83.82;101571.22;6189060;23;20044;-76
2023/03/29 01:46:51;;;;;;;2.83;2.33;;;;;;;5.45;83.93;101557.25;6188815;23;20022;-76
2023/03/29 01:49:44;;;;;;;5.45;2.47;;;;;;;5.47;83.74;101559.50;6188122;23;20021;-76
2023/03/29 01:52:26;;;;;;;3.22;2.60;;;;;;;5.48;84.01;101561.78;6188858;23;20022;-77
2023/03/29 01:54:59;;;;;;;3.63;2.45;;;;;;;5.50;83.62;101554.22;6163450;23;20522;-77
2023/03/29 01:57:26;;;;;;;3.22;2.78;;;;;;;5.52;83.91;101556.47;6189041;23;20025;-76
2023/03/29 01:59:54;;;;;;;3.38;2.83;;;;;;;5.53;84.05;101553.44;6189611;23;20646;-76
2023/03/29 02:02:26;;;;;;;4.35;2.45;;;;;;;5.54;83.56;101547.03;6189310;23;20024;-77
2023/03/29 02:04:54;;;;;;;2.80;2.58;;;;;;;5.56;83.39;101550.03;6162882;23;20422;-76
2023/03/29 02:07:25;;;;;;;4.65;2.78;;;;;;;5.58;83.51;101539.84;6188414;23;20013;-78
2023/03/29 02:09:53;;;;;;;3.65;2.63;;;;;;;5.58;83.63;101542.50;6162999;23;20017;-77
2023/03/29 02:12:20;;;;;;;4.80;2.65;;;;;;;5.60;84.13;101540.19;6188335;23;20026;-78
2023/03/29 02:14:46;;;;;;;4.53;2.83;;;;;;;5.60;83.96;101544.72;6189065;23;20040;-78
2023/03/29 02:17:21;;;;;;;5.40;2.92;;;;;;;5.59;84.06;101530.78;6188405;23;20325;-78
2023/03/29 02:19:53;;;;;;;3.22;2.55;;;;;;;5.60;84.00;101542.06;6189570;23;20100;-78
2023/03/29 02:22:27;;;;;;;3.00;2.53;;;;;;;5.61;84.12;101533.75;6188846;23;20061;-77
2023/03/29 02:24:57;;;;;;;7.05;2.88;;;;;;;5.62;84.04;101539.81;6189523;23;20455;-77
2023/03/29 02:27:27;;;;;;;4.68;2.83;;;;;;;5.63;84.35;101525.47;6188632;23;20013;-77
2023/03/29 02:29:56;;;;;;;2.83;2.63;;;;;;;5.63;84.81;101528.09;6162765;23;20432;-77
2023/03/29 02:32:34;;;;;;;2.83;2.55;;;;;;;5.64;84.56;101529.59;6187649;23;20245;-77
2023/03/29 02:35:11;;;;;;;4.38;2.80;;;;;;;5.64;85.08;101517.16;6162736;23;20024;-77
2023/03/29 02:37:43;;;;;;;3.10;2.80;;;;;;;5.66;85.43;101516.75;6188933;23;20033;-77
2023/03/29 02:40:12;;;;;;;3.83;2.90;;;;;;;5.67;85.13;101519.03;6162063;23;20024;-77
2023/03/29 02:42:42;;;;;;;4.82;2.75;;;;;;;5.69;85.25;101519.38;6161761;23;20525;-78
2023/03/29 02:45:11;;;;;;;5.75;2.92;;;;;;;5.71;85.44;101521.66;6161889;23;20021;-77
2023/03/29 02:47:44;;;;;;;7.50;2.95;;;;;;;5.69;85.27;101522.03;6188112;23;20045;-77
2023/03/29 02:50:11;;;;;;;3.97;3.03;;;;;;;5.70;85.30;101520.91;6162053;23;20021;-77
2023/03/29 02:52:47;;;;;;;3.08;2.75;;;;;;;5.70;85.32;101515.59;6188297;23;20359;-75
2023/03/29 02:55:17;;;;;;;3.20;2.90;;;;;;;5.70;85.54;101510.31;6188913;23;20089;-78
2023/03/29 02:57:44;;;;;;;3.10;2.90;;;;;;;5.71;85.57;101508.44;6189320;23;20014;-77
2023/03/29 03:00:13;;;;;;;6.00;3.03;;;;;;;5.71;85.78;101495.22;6161460;23;20028;-77
2023/03/29 03:02:40;;;;;;;7.00;2.92;;;;;;;5.70;86.28;101510.31;6161005;23;20508;-77
2023/03/29 03:05:08;;;;;;;3.03;2.75;;;;;;;5.70;85.89;101502.41;6137688;23;20028;-78
2023/03/29 03:07:35;;;;;;;4.13;3.40;;;;;;;5.73;86.26;101508.06;6162022;23;20794;-77
2023/03/29 03:10:02;;;;;;;4.85;2.63;;;;;;;5.71;nan;101505.78;6189195;23;20089;-77
2023/03/29 03:12:29;;;;;;;3.67;3.22;;;;;;;5.72;86.53;101491.44;6161591;23;20021;-77
2023/03/29 03:14:57;;;;;;;5.93;3.13;;;;;;;5.72;86.18;101485.41;6161643;23;20077;-78
2023/03/29 03:17:24;;;;;;;7.78;2.90;;;;;;;5.73;86.55;101484.28;6188398;23;20403;-77
2023/03/29 03:19:51;;;;;;;3.88;3.25;;;;;;;5.72;86.79;101477.47;6138457;23;20021;-77
2023/03/29 03:22:19;;;;;;;4.88;2.63;;;;;;;5.72;86.46;101480.13;6162161;23;20021;-77
2023/03/29 03:24:46;;;;;;;5.82;3.38;;;;;;;5.72;86.89;101469.56;6163386;23;20018;-77
2023/03/29 03:27:12;;;;;;;3.63;3.10;;;;;;;5.72;86.77;101465.03;6162800;23;20443;-77
2023/03/29 03:29:40;;;;;;;4.15;2.97;;;;;;;5.73;86.93;101473.69;6162727;23;20434;-77
2023/03/29 03:32:36;;;;;;;3.63;2.83;;;;;;;5.73;87.37;101469.16;6189011;23;20026;-77
2023/03/29 03:35:21;;;;;;;4.80;3.17;;;;;;;5.77;87.28;101471.78;6166896;23;20037;-77
2023/03/29 03:37:48;;;;;;;4.72;3.30;;;;;;;5.74;87.31;101464.63;6163369;23;20447;-77
2023/03/29 03:40:16;;;;;;;3.65;3.15;;;;;;;5.75;87.63;101463.50;6162241;23;20452;-77
2023/03/29 03:42:43;;;;;;;3.20;2.90;;;;;;;5.74;87.20;101467.28;6162814;23;20463;-77
2023/03/29 03:45:11;;;;;;;8.05;2.83;;;;;;;5.74;87.33;101472.56;6162450;23;20463;-77
2023/03/29 03:47:49;;;;;;;7.63;3.20;;;;;;;5.74;87.54;101465.38;6163426;23;20459;-77
2023/03/29 03:50:33;;;;;;;3.63;3.22;;;;;;;5.74;87.58;101462.75;6162272;23;20105;-77
2023/03/29 03:53:00;;;;;;;4.95;3.28;;;;;;;5.74;87.62;101473.31;6163026;23;20108;-77
2023/03/29 03:55:39;;;;;;;4.32;2.70;;;;;;;5.74;87.80;101468.03;6162663;23;20025;-76
2023/03/29 03:58:10;;;;;;;5.93;3.22;;;;;;;5.74;87.58;101468.03;6163014;23;20076;-77
2023/03/29 04:00:37;;;;;;;5.43;2.90;;;;;;;5.76;88.04;101473.69;6162077;23;20378;-78
2023/03/29 04:03:20;;;;;;;6.30;2.90;;;;;;;5.76;87.80;101476.31;6162217;23;20028;-77
2023/03/29 04:05:47;;;;;;;4.90;3.05;;;;;;;5.77;87.56;101471.78;6163261;23;20021;-77
2023/03/29 04:08:15;;;;;;;3.83;3.33;;;;;;;5.77;87.90;101472.53;6162168;23;20018;-77
2023/03/29 04:11:03;;;;;;;3.17;2.90;;;;;;;5.77;87.72;101464.63;6188986;23;20022;-78
2023/03/29 04:13:35;;;;;;;5.07;3.38;;;;;;;5.77;87.92;101463.88;6162126;23;20032;-78
2023/03/29 04:16:26;;;;;;;4.35;3.15;;;;;;;5.77;88.04;101467.25;6142677;23;20455;-77
2023/03/29 04:18:55;;;;;;;3.00;2.80;;;;;;;5.78;87.83;101463.47;6162952;23;20041;-77
2023/03/29 04:21:22;;;;;;;4.82;3.35;;;;;;;5.78;87.93;101458.19;6162033;23;20054;-77
2023/03/29 04:23:49;;;;;;;8.27;3.25;;;;;;;5.79;87.87;101457.06;6163228;23;20021;-77
2023/03/29 04:26:16;;;;;;;4.55;3.30;;;;;;;5.80;87.81;101455.91;6162768;23;20467;-78
2023/03/29 04:29:03;;;;;;;7.72;2.78;;;;;;;5.79;87.80;101454.41;6188176;23;20025;-77
2023/03/29 04:31:44;;;;;;;3.13;2.93;;;;;;;5.80;87.77;101450.63;6163002;23;20021;-77
2023/03/29 04:34:20;;;;;;;4.85;3.17;;;;;;;5.79;87.86;101449.13;6188791;23;20280;-78
2023/03/29 04:36:52;;;;;;;4.00;3.42;;;;;;;5.81;87.78;101443.47;6162869;23;20017;-78
2023/03/29 04:39:30;;;;;;;4.32;2.92;;;;;;;5.81;87.82;101438.16;6162185;23;20018;-77
2023/03/29 04:41:57;;;;;;;3.95;3.08;;;;;;;5.80;87.52;101434.03;6161961;23;20630;-77
2023/03/29 04:44:26;;;;;;;3.10;2.78;;;;;;;5.82;87.47;101437.03;6188942;23;20489;-77
2023/03/29 04:46:55;;;;;;;4.90;3.10;;;;;;;5.82;87.29;101432.50;6162784;23;20024;-77
2023/03/29 04:49:41;;;;;;;4.45;2.70;;;;;;;5.83;87.43;101446.47;6189858;23;20379;-78
2023/03/29 04:52:18;;;;;;;5.07;2.85;;;;;;;5.83;86.92;101449.84;6161997;23;20088;-77
2023/03/29 04:54:44;;;;;;;6.38;2.80;;;;;;;5.83;87.54;101439.28;6162782;23;20037;-77
2023/03/29 04:57:19;;;;;;;3.72;3.35;;;;;;;5.83;87.55;101441.94;6161724;23;20021;-77
2023/03/29 04:59:53;;;;;;;3.35;3.05;;;;;;;5.84;87.77;101445.31;6140309;23;20328;-78
2023/03/29 05:02:38;;;;;;;4.93;3.10;;;;;;;5.83;87.80;101436.66;6189470;23;20025;-77
2023/03/29 05:05:05;;;;;;;3.40;3.10;;;;;;;5.86;87.99;101440.41;6162556;23;20403;-77
2023/03/29 05:07:32;;;;;;;3.00;2.75;;;;;;;5.86;87.87;101433.22;6162564;23;20018;-77
2023/03/29 05:09:58;;;;;;;4.50;3.05;;;;;;;5.87;87.78;101442.66;6189582;23;20496;-77
2023/03/29 05:12:25;;;;;;;3.30;2.97;;;;;;;5.88;87.69;101436.22;6161407;23;20463;-77
2023/03/29 05:14:53;;;;;;;5.43;2.83;;;;;;;5.88;87.45;101430.94;6162661;23;20537;-77
2023/03/29 05:17:25;;;;;;;3.67;3.40;;;;;;;5.88;87.74;101428.31;6189189;23;20484;-77
2023/03/29 05:19:55;;;;;;;4.32;3.30;;;;;;;5.89;87.97;101432.47;6162919;23;20068;-78
2023/03/29 05:22:23;;;;;;;4.28;3.35;;;;;;;5.89;87.67;101423.81;6162117;23;20017;-77
2023/03/29 05:24:51;;;;;;;5.95;3.17;;;;;;;5.91;87.29;101432.09;6162749;23;20022;-78
2023/03/29 05:27:21;;;;;;;7.78;3.50;;;;;;;5.91;87.21;101432.09;6162554;23;20572;-77
2023/03/29 05:29:59;;;;;;;8.68;3.20;;;;;;;5.94;87.44;101431.31;6163443;23;20100;-79
2023/03/29 05:32:46;;;;;;;3.53;2.85;;;;;;;5.94;87.52;101432.06;6179040;23;20026;-76
2023/03/29 05:35:16;;;;;;;3.97;3.50;;;;;;;5.96;87.68;101437.72;6163300;23;20021;-76
2023/03/29 05:37:46;;;;;;;3.70;3.40;;;;;;;5.96;87.16;101439.59;6163536;23;20020;-78
2023/03/29 05:40:12;;;;;;;3.53;3.00;;;;;;;5.98;87.47;101440.72;6162127;23;20017;-77
2023/03/29 05:43:10;;;;;;;5.05;3.40;;;;;;;5.99;87.34;101436.94;6188587;23;20029;-78
2023/03/29 05:45:37;;;;;;;4.57;3.28;;;;;;;6.01;87.42;101441.81;6163340;23;20475;-77
2023/03/29 05:48:05;;;;;;;5.53;3.35;;;;;;;6.02;87.19;101435.38;6190742;23;20013;-76
2023/03/29 05:50:32;;;;;;;4.57;3.30;;;;;;;6.04;87.20;101441.03;6163065;23;20045;-76
2023/03/29 05:52:59;;;;;;;3.95;2.92;;;;;;;6.04;87.70;101438.38;6162796;23;20053;-76
2023/03/29 05:55:26;;;;;;;5.93;3.58;;;;;;;6.06;87.34;101438.75;6162601;23;20025;-77
2023/03/29 05:57:53;;;;;;;6.82;3.15;;;;;;;6.08;87.38;101441.75;6190131;23;20018;-77
2023/03/29 06:00:24;;;;;;;4.80;3.60;;;;;;;6.11;87.54;101442.84;6163052;23;20014;-76
2023/03/29 06:03:02;;;;;;;4.70;3.10;;;;;;;6.13;87.45;101440.56;6162998;23;20626;-76
2023/03/29 06:05:41;;;;;;;3.95;3.38;;;;;;;6.15;87.56;101439.03;6163387;23;20090;-77
2023/03/29 06:08:08;;;;;;;4.47;3.20;;;;;;;6.17;87.38;101447.34;6162791;23;20060;-77
2023/03/29 06:11:03;;;;;;;3.45;3.15;;;;;;;6.21;87.24;101453.34;6189463;23;20049;-76
2023/03/29 06:13:54;;;;;;;4.53;3.05;;;;;;;6.23;86.96;101450.31;6189454;23;20032;-77
2023/03/29 06:16:21;;;;;;;3.75;3.45;;;;;;;6.25;86.96;101445.38;6163425;23;20022;-77
2023/03/29 06:18:47;;;;;;;3.58;3.28;;;;;;;6.28;87.04;101447.25;6163172;23;20024;-77
2023/03/29 06:21:14;;;;;;;3.65;3.03;;;;;;;6.30;86.73;101445.72;6189511;23;20018;-76
2023/03/29 06:23:41;;;;;;;4.72;3.63;;;;;;;6.36;86.86;101443.41;6162668;23;20319;-77
2023/03/29 06:26:09;;;;;;;4.05;3.65;;;;;;;6.38;87.04;101450.94;6163070;23;20121;-76
2023/03/29 06:28:36;;;;;;;6.10;3.65;;;;;;;6.41;87.12;101444.84;6163399;23;20443;-76
2023/03/29 06:31:03;;;;;;;5.03;3.72;;;;;;;6.44;86.55;101447.44;6163190;23;20014;-77
2023/03/29 06:33:36;;;;;;;3.70;3.38;;;;;;;6.49;86.53;101452.31;6163342;23;20022;-76
2023/03/29 06:36:15;;;;;;;4.35;3.67;;;;;;;6.54;86.92;101451.13;6163240;23;20410;-76
2023/03/29 06:38:44;;;;;;;3.83;3.53;;;;;;;6.61;86.79;101448.41;6189501;23;20045;-76
2023/03/29 06:41:31;;;;;;;3.97;3.58;;;;;;;6.67;86.27;101441.56;6188413;23;20022;-74
2023/03/29 06:44:21;;;;;;;6.72;3.90;;;;;;;6.73;86.71;101449.81;6068756;23;20027;-77
2023/03/29 06:47:00;;;;;;;5.68;3.85;;;;;;;6.77;86.63;101453.91;6044847;23;20390;-76
2023/03/29 06:49:26;;;;;;;6.15;3.80;;;;;;;6.82;86.76;101450.06;6044732;23;20296;-76
2023/03/29 06:52:07;;;;;;;4.32;3.88;;;;;;;6.86;87.03;101445.47;6068750;23;20029;-76
2023/03/29 06:54:35;;;;;;;7.03;4.25;;;;;;;6.92;87.03;101457.13;6067087;23;20158;-76
2023/03/29 06:57:04;;;;;;;6.43;4.20;;;;;;;6.98;87.37;101447.63;6069131;23;20507;-76
2023/03/29 06:59:33;;;;;;;8.23;4.45;;;;;;;7.05;87.65;101454.72;6068740;23;20019;-76
2023/03/29 07:02:11;;;;;;;7.60;4.25;;;;;;;7.13;88.18;101458.78;6044325;23;20023;-76
2023/03/29 07:05:00;;;;;;;4.78;4.38;;;;;;;7.17;88.43;101464.78;6068237;23;20094;-78
2023/03/29 07:07:42;;;;;;;6.10;4.43;;;;;;;7.22;88.90;101467.72;6069358;23;20050;-78
2023/03/29 07:10:31;;;;;;;11.30;4.40;;;;;;;7.34;89.02;101469.09;6068304;23;20615;-76
2023/03/29 07:13:01;;;;;;;4.55;4.05;;;;;;;7.50;88.73;101458.66;6068895;23;20480;-77
2023/03/29 07:15:28;;;;;;;7.82;4.78;;;;;;;7.59;88.48;101458.91;6043959;23;20087;-77
2023/03/29 07:18:21;;;;;;;5.18;4.15;;;;;;;7.66;87.95;101461.44;6050669;23;20481;-77
2023/03/29 07:20:48;;;;;;;5.53;4.50;;;;;;;7.69;87.85;101460.63;6095870;23;20411;-76
2023/03/29 07:23:14;;;;;;;7.72;4.88;;;;;;;7.75;87.78;101458.28;6161931;23;20014;-77
2023/03/29 07:25:43;;;;;;;10.48;4.38;;;;;;;7.82;87.95;101465.38;6161270;23;20080;-75
2023/03/29 07:28:10;;;;;;;6.18;4.47;;;;;;;7.86;87.76;101460.78;6161480;23;20025;-75
2023/03/29 07:30:37;;;;;;;7.28;4.57;;;;;;;7.87;87.03;101459.63;6162284;23;20439;-75
2023/03/29 07:33:12;;;;;;;7.20;4.57;;;;;;;7.89;86.81;101460.72;6162277;23;20017;-76
2023/03/29 07:35:46;;;;;;;8.00;4.75;;;;;;;7.90;86.58;101472.06;6162688;23;20474;-76
2023/03/29 07:38:14;;;;;;;7.10;4.85;;;;;;;7.94;86.64;101456.88;6188095;23;20764;-76
2023/03/29 07:40:46;;;;;;;7.45;4.72;;;;;;;8.00;86.60;101468.47;6162589;23;20471;-77
2023/03/29 07:43:33;;;;;;;8.75;4.75;;;;;;;8.04;85.83;101459.31;6188054;23;20085;-76
2023/03/29 07:46:01;;;;;;;6.07;4.70;;;;;;;8.11;85.64;101468.31;6162243;23;20419;-75
2023/03/29 07:48:32;;;;;;;5.75;4.70;;;;;;;8.19;85.83;101465.16;6138524;23;20026;-75
2023/03/29 07:51:03;;;;;;;5.95;4.68;;;;;;;8.27;85.29;101482.44;6161446;23;20073;-76
2023/03/29 07:53:53;;;;;;;6.20;4.50;;;;;;;8.35;84.60;101481.19;6189877;23;20676;-78
2023/03/29 07:56:46;;;;;;;8.35;5.43;;;;;;;8.40;84.73;101472.00;6185774;23;20021;-75
2023/03/29 07:59:32;;;;;;;10.30;5.43;;;;;;;8.47;84.29;101477.19;6188681;23;20026;-75
2023/03/29 08:02:06;;;;;;;7.07;4.90;;;;;;;8.54;84.17;101465.69;6162076;23;20080;-75
2023/03/29 08:04:37;;;;;;;7.10;5.50;;;;;;;8.60;84.05;101469.38;6162380;23;20085;-75
2023/03/29 08:07:26;;;;;;;5.60;5.00;;;;;;;8.66;84.07;101471.16;6156840;23;20026;-75
2023/03/29 08:10:02;;;;;;;8.93;5.53;;;;;;;8.74;83.94;101469.13;6190408;23;20037;-76
2023/03/29 08:12:59;;;;;;;6.90;5.03;;;;;;;8.78;83.39;101469.06;6071415;23;20027;-75
2023/03/29 08:15:38;;;;;;;8.35;5.55;;;;;;;8.75;83.35;101469.88;6069875;23;20026;-76
2023/03/29 08:18:17;;;;;;;7.03;5.70;;;;;;;8.79;83.58;101463.34;6067584;23;20024;-79
2023/03/29 08:20:43;;;;;;;9.68;5.28;;;;;;;8.86;83.76;101459.78;6067628;23;20023;-80
2023/03/29 08:23:10;;;;;;;8.77;5.50;;;;;;;8.94;83.19;101469.84;6068754;23;20060;-76
2023/03/29 08:25:56;;;;;;;9.90;5.88;;;;;;;8.99;83.37;101474.69;6070301;23;20020;-76
2023/03/29 08:28:24;;;;;;;8.88;6.53;;;;;;;9.09;83.88;101466.91;6069276;23;20042;-76
2023/03/29 08:30:51;;;;;;;10.75;5.90;;;;;;;9.19;83.43;101463.28;6069632;23;20019;-76
2023/03/29 08:33:18;;;;;;;8.23;6.18;;;;;;;9.22;83.42;101460.53;6068884;23;20024;-76
2023/03/29 08:35:52;;;;;;;10.57;6.63;;;;;;;9.32;83.23;101451.59;6068637;23;20023;-77
2023/03/29 08:38:26;;;;;;;11.57;6.97;;;;;;;9.39;82.53;101452.59;6068637;23;20115;-76
2023/03/29 08:40:54;;;;;;;7.25;6.50;;;;;;;9.42;83.16;101447.22;6044851;23;20059;-76
2023/03/29 08:43:45;;;;;;;8.35;6.57;;;;;;;9.46;82.67;101450.53;6069412;23;20019;-81
2023/03/29 08:46:34;;;;;;;10.15;6.97;;;;;;;9.52;82.93;101445.47;6044971;23;20022;-81
2023/03/29 08:49:21;;;;;;;9.90;6.43;;;;;;;9.60;82.52;101444.88;6123442;23;20021;-78
2023/03/29 08:51:55;;;;;;;9.55;6.05;;;;;;;9.62;82.28;101444.47;6164009;23;20366;-75
2023/03/29 08:54:28;;;;;;;14.15;7.03;;;;;;;9.63;82.58;101444.06;6189286;23;20072;-75
2023/03/29 08:57:26;;;;;;;15.70;6.85;;;;;;;9.68;83.26;101456.09;6188237;23;20021;-75
2023/03/29 09:00:05;;;;;;;10.07;7.18;;;;;;;9.73;82.48;101465.50;6163501;23;20451;-75
2023/03/29 09:02:36;;;;;;;11.52;7.20;;;;;;;9.77;82.65;101472.22;6164090;23;20478;-76
2023/03/29 09:05:36;;;;;;;12.75;7.15;;;;;;;9.81;82.82;101472.91;6162581;23;20017;-77
2023/03/29 09:08:20;;;;;;;8.98;6.95;;;;;;;9.86;82.40;101467.09;6162964;23;20021;-76
2023/03/29 09:11:11;;;;;;;9.02;7.07;;;;;;;9.91;82.56;101479.13;6161777;23;20021;-76
2023/03/29 09:13:58;;;;;;;11.55;7.50;;;;;;;9.88;81.93;101474.66;6161188;23;20025;-76
2023/03/29 09:16:48;;;;;;;10.40;7.47;;;;;;;9.91;82.14;101465.84;6160454;23;20490;-76
2023/03/29 09:19:36;;;;;;;10.93;7.35;;;;;;;9.97;82.41;101472.91;6159970;23;20594;-75
2023/03/29 09:22:45;;;;;;;11.07;7.07;;;;;;;9.97;82.70;101469.50;6160444;23;20073;-79
2023/03/29 09:25:28;;;;;;;12.00;7.30;;;;;;;10.09;82.80;101470.72;6161157;23;20021;-79
2023/03/29 09:28:09;;;;;;;11.80;7.57;;;;;;;10.18;82.76;101473.53;6163504;23;20065;-79
2023/03/29 09:31:14;;;;;;;8.48;7.18;;;;;;;10.34;82.43;101476.94;6167751;23;20013;-79
2023/03/29 09:33:51;;;;;;;20.05;6.93;;;;;;;10.44;82.36;101469.09;6152326;23;20385;-79
2023/03/29 09:36:27;;;;;;;11.70;8.05;;;;;;;10.58;82.34;101472.13;6163458;23;20025;-80
2023/03/29 09:38:54;;;;;;;11.57;7.25;;;;;;;10.71;81.52;101472.16;6163252;23;20706;-79
2023/03/29 09:41:41;;;;;;;8.80;7.45;;;;;;;10.78;81.61;101490.63;6145067;23;20134;-80
2023/03/29 09:44:15;;;;;;;8.70;7.25;;;;;;;10.85;81.67;101482.41;6129056;23;20448;-80
2023/03/29 09:46:52;;;;;;;12.15;8.10;;;;;;;10.85;81.45;101473.69;6129598;23;20034;-80
2023/03/29 09:49:30;;;;;;;8.75;7.40;;;;;;;10.89;81.66;101475.06;6128366;23;20014;-82
2023/03/29 09:52:04;;;;;;;12.25;7.70;;;;;;;11.02;82.42;101465.19;6128753;23;20098;-76
2023/03/29 09:54:31;;;;;;;8.40;7.47;;;;;;;11.09;81.09;101469.59;6128307;23;20022;-77
2023/03/29 09:57:24;;;;;;;10.43;7.90;;;;;;;11.02;81.16;101465.19;6129928;23;20026;-78
2023/03/29 09:59:51;;;;;;;11.95;8.15;;;;;;;11.02;80.90;101465.19;6130189;23;20019;-75
2023/03/29 10:02:20;;;;;;;10.43;8.27;;;;;;;11.02;80.86;101470.53;6127939;23;20105;-75
2023/03/29 10:04:59;;;;;;;16.10;7.95;;;;;;;11.01;80.85;101477.03;6128439;23;20026;-76
2023/03/29 10:07:39;;;;;;;10.82;7.70;;;;;;;11.03;81.33;101468.59;6129840;23;20018;-76
2023/03/29 10:10:09;;;;;;;12.35;8.40;;;;;;;11.13;81.37;101469.47;6128520;23;20113;-77
2023/03/29 10:12:36;;;;;;;16.45;8.93;;;;;;;11.22;80.99;101469.56;6130405;23;20021;-76
2023/03/29 10:15:04;;;;;;;11.07;8.70;;;;;;;11.35;80.74;101468.41;6130027;23;20082;-77
2023/03/29 10:17:39;;;;;;;10.05;8.77;;;;;;;11.44;80.15;101459.03;6130459;23;20029;-81
2023/03/29 10:20:11;;;;;;;11.73;8.35;;;;;;;11.64;79.68;101462.94;6130687;23;20019;-80
2023/03/29 10:22:39;;;;;;;9.85;8.20;;;;;;;11.62;79.61;101459.22;6130478;23;20042;-80
2023/03/29 10:25:16;;;;;;;9.43;8.50;;;;;;;11.68;80.01;101452.16;6130767;23;20101;-81
2023/03/29 10:27:44;;;;;;;12.13;9.38;;;;;;;11.75;79.84;101459.19;6130481;23;20019;-83
2023/03/29 10:30:19;;;;;;;15.55;9.25;;;;;;;11.77;79.18;101457.63;6129305;23;20698;-80
2023/03/29 10:32:46;;;;;;;11.05;8.85;;;;;;;11.85;79.19;101456.22;6131259;23;20023;-80
2023/03/29 10:35:32;;;;;;;13.73;9.48;;;;;;;11.94;79.24;101466.25;6129742;23;20078;-80
2023/03/29 10:38:03;;;;;;;10.05;9.00;;;;;;;11.96;78.69;101451.31;6130300;23;20022;-80
2023/03/29 10:40:32;;;;;;;12.60;9.75;;;;;;;11.94;79.17;101448.31;6132426;23;20026;-77
2023/03/29 10:43:28;;;;;;;15.32;10.18;;;;;;;11.91;79.29;101448.44;6189357;23;20017;-77
2023/03/29 10:46:03;;;;;;;12.95;11.02;;;;;;;11.81;80.37;101449.50;6180981;23;20029;-77
2023/03/29 10:48:33;;;;;;;16.10;10.38;;;;;;;11.80;80.88;101446.09;6189542;23;20017;-77
2023/03/29 10:51:01;;;;;;;13.00;10.38;;;;;;;11.86;80.73;101438.31;6189778;23;20395;-77
2023/03/29 10:53:31;;;;;;;13.20;10.27;;;;;;;11.78;81.47;101440.44;6189172;23;20013;-77
2023/03/29 10:56:28;;;;;;;14.07;10.73;;;;;;;11.77;82.15;101441.63;6189776;23;20017;-78
2023/03/29 10:59:28;;;;;;;13.43;9.68;;;;;;;11.76;81.98;101437.44;6189085;23;20092;-77
2023/03/29 11:02:17;;;;;;;18.70;10.35;;;;;;;11.86;82.87;101430.31;6190157;23;20022;-77
2023/03/29 11:04:48;;;;;;;12.05;10.75;;;;;;;11.87;82.57;101418.44;6189664;23;20080;-77
2023/03/29 11:07:14;;;;;;;13.33;10.63;;;;;;;11.95;82.54;101417.03;6162910;23;20021;-77
2023/03/29 11:09:51;;;;;;;12.60;10.13;;;;;;;12.03;83.32;101423.63;6189776;23;20029;-77
2023/03/29 11:12:27;;;;;;;11.13;9.95;;;;;;;12.10;83.25;101427.97;6189337;23;20010;-76
2023/03/29 11:15:18;;;;;;;14.63;10.98;;;;;;;12.08;83.51;101425.00;6189014;23;20049;-77
2023/03/29 11:18:14;;;;;;;13.77;10.55;;;;;;;11.96;84.07;101427.28;6190007;23;20073;-77
2023/03/29 11:21:08;;;;;;;14.60;10.35;;;;;;;11.96;84.54;101410.53;6189668;23;20091;-76
2023/03/29 11:23:40;;;;;;;13.13;10.40;;;;;;;11.94;85.24;101410.22;6189650;23;20013;-77
2023/03/29 11:26:19;;;;;;;14.32;10.32;;;;;;;11.97;85.63;101406.69;6163696;23;20443;-77
2023/03/29 11:29:01;;;;;;;12.73;10.15;;;;;;;12.11;85.15;101405.44;6188956;23;20017;-79
2023/03/29 11:31:40;;;;;;;11.20;10.05;;;;;;;12.15;84.59;101412.16;6188944;23;20021;-77
2023/03/29 11:34:34;;;;;;;12.88;10.65;;;;;;;12.18;84.58;101403.28;6189444;23;20069;-77
2023/03/29 11:37:16;;;;;;;16.30;10.10;;;;;;;12.32;84.26;101408.13;6189032;23;20013;-77
2023/03/29 11:40:09;;;;;;;11.02;9.93;;;;;;;12.39;82.92;101414.41;6189570;23;20048;-77
2023/03/29 11:42:42;;;;;;;12.88;10.75;;;;;;;12.23;83.28;101410.75;6189280;23;20017;-77
2023/03/29 11:45:15;;;;;;;15.02;10.60;;;;;;;12.21;83.63;101412.34;6190199;23;20024;-77
2023/03/29 11:47:45;;;;;;;15.85;11.00;;;;;;;12.42;83.09;101413.50;6190717;23;20093;-78
2023/03/29 11:50:24;;;;;;;12.18;9.88;;;;;;;12.51;82.46;101405.56;6190545;23;20024;-77
2023/03/29 11:52:57;;;;;;;12.50;10.05;;;;;;;12.51;82.25;101408.25;6164270;23;20022;-77
2023/03/29 11:55:29;;;;;;;10.50;9.50;;;;;;;12.61;81.28;101412.47;6190359;23;20026;-77
2023/03/29 11:58:02;;;;;;;12.55;9.88;;;;;;;12.56;80.92;101421.78;6190241;23;20050;-77
2023/03/29 12:00:36;;;;;;;11.85;10.20;;;;;;;12.57;81.31;101417.94;6190042;23;20017;-77
2023/03/29 12:03:20;;;;;;;14.10;10.68;;;;;;;12.67;81.36;101427.50;6190789;23;20021;-77
2023/03/29 12:05:57;;;;;;;11.73;10.48;;;;;;;12.68;81.15;101434.31;6190672;23;20017;-77